This is the latest recevied weather packets stored in our database for station/object DG3RAP-11. If no packets are shown the sender has not sent any weather packets the latest 10 day(s).
| Time | Temp. | Humidity | Pressure | Rain* | Wind** | Luminosity | Snow |
|---|---|---|---|---|---|---|---|
| 1778157363 | 10.56° C | 87% | 1013.9 hPa | 0.25 mm | - | - | - |
| 1778156823 | 10.56° C | 89% | 1013.7 hPa | 0.25 mm | - | - | - |
| 1778156283 | 10.56° C | 91% | 1013.7 hPa | 0.25 mm | - | - | - |
| 1778155743 | 10.56° C | 90% | 1013.8 hPa | 0 mm | - | - | - |
| 1778155203 | 10.56° C | 88% | 1013.5 hPa | 0 mm | - | - | - |
| 1778154843 | 10.56° C | 89% | 1013.5 hPa | 0 mm | - | - | - |
| 1778154303 | 10.56° C | 86% | 1013.4 hPa | 0 mm | - | - | - |
| 1778153763 | 10° C | 86% | 1013.2 hPa | 0 mm | - | - | - |
| 1778153224 | 10° C | 85% | 1013.3 hPa | 0 mm | - | - | - |
| 1778152683 | 10.56° C | 84% | 1013.3 hPa | 0 mm | - | - | - |
| 1778152144 | 11.11° C | 79% | 1013.1 hPa | 0 mm | - | - | - |
| 1778151603 | 12.78° C | 77% | 1012.9 hPa | 0 mm | - | - | - |
| 1778151243 | 12.78° C | 76% | 1013.1 hPa | 0 mm | - | - | - |
| 1778150703 | 12.22° C | 77% | 1013.2 hPa | 0 mm | - | - | - |
| 1778150163 | 12.78° C | 76% | 1013.1 hPa | 0 mm | - | - | - |
| 1778149624 | 12.22° C | 77% | 1013 hPa | 0 mm | - | - | - |
| 1778149083 | 11.67° C | 81% | 1013 hPa | 0 mm | - | - | - |
| 1778148543 | 11.67° C | 83% | 1013.4 hPa | 0 mm | - | - | - |
| 1778148003 | 12.22° C | 78% | 1012.9 hPa | 0 mm | - | - | - |
| 1778147643 | 12.22° C | 78% | 1013.1 hPa | 0 mm | - | - | - |
| 1778147103 | 11.67° C | 81% | 1013.1 hPa | 0 mm | - | - | - |
| 1778146563 | 11.11° C | 83% | 1013.1 hPa | 0 mm | - | - | - |
| 1778146023 | 11.11° C | 79% | 1012.8 hPa | 0 mm | - | - | - |
| 1778145483 | 11.11° C | 80% | 1012.8 hPa | 0 mm | - | - | - |
| 1778144943 | 11.11° C | 80% | 1012.5 hPa | 0 mm | - | - | - |
* Rain latest hour (hover to see other rain measurements)
** Current wind speed in m/s (hover to see current wind gust speed)